sensor_id;sensor_type;location;lat;lon;timestamp;pressure;altitude;pressure_sealevel;temperature;humidity
22930;BME280;11630;42.660;23.292;2023-08-06T00:01:45;69766.28;;;20.07;100.00
22930;BME280;11630;42.660;23.292;2023-08-06T00:04:16;69751.15;;;20.02;100.00
22930;BME280;11630;42.660;23.292;2023-08-06T00:06:47;69789.03;;;20.28;100.00
22930;BME280;11630;42.660;23.292;2023-08-06T00:09:21;69810.45;;;20.45;100.00
22930;BME280;11630;42.660;23.292;2023-08-06T00:11:52;69809.86;;;20.52;100.00
22930;BME280;11630;42.660;23.292;2023-08-06T00:14:22;69773.90;;;20.21;100.00
22930;BME280;11630;42.660;23.292;2023-08-06T00:16:53;69775.89;;;20.11;100.00
22930;BME280;11630;42.660;23.292;2023-08-06T00:19:24;69804.63;;;20.46;100.00
22930;BME280;11630;42.660;23.292;2023-08-06T00:21:55;69816.44;;;20.58;100.00
22930;BME280;11630;42.660;23.292;2023-08-06T00:24:26;69736.00;;;19.97;100.00
22930;BME280;11630;42.660;23.292;2023-08-06T00:26:57;69802.73;;;20.43;100.00
22930;BME280;11630;42.660;23.292;2023-08-06T00:29:28;69807.94;;;20.49;100.00
22930;BME280;11630;42.660;23.292;2023-08-06T00:32:00;69825.45;;;20.70;100.00
22930;BME280;11630;42.660;23.292;2023-08-06T00:34:30;69855.81;;;20.75;100.00
22930;BME280;11630;42.660;23.292;2023-08-06T00:37:01;69873.08;;;20.94;100.00
22930;BME280;11630;42.660;23.292;2023-08-06T00:39:32;69872.50;;;20.99;100.00
22930;BME280;11630;42.660;23.292;2023-08-06T00:42:02;69879.58;;;21.15;100.00
22930;BME280;11630;42.660;23.292;2023-08-06T00:44:33;69870.48;;;21.11;100.00
22930;BME280;11630;42.660;23.292;2023-08-06T00:47:03;69900.00;;;21.16;100.00
22930;BME280;11630;42.660;23.292;2023-08-06T00:49:34;69881.50;;;21.16;100.00
22930;BME280;11630;42.660;23.292;2023-08-06T00:52:06;69835.38;;;20.77;100.00
22930;BME280;11630;42.660;23.292;2023-08-06T00:54:37;69849.36;;;20.90;100.00
22930;BME280;11630;42.660;23.292;2023-08-06T00:57:08;69873.09;;;20.92;100.00
22930;BME280;11630;42.660;23.292;2023-08-06T00:59:42;69881.84;;;21.05;100.00
22930;BME280;11630;42.660;23.292;2023-08-06T01:02:19;69869.41;;;21.05;100.00
22930;BME280;11630;42.660;23.292;2023-08-06T01:04:49;69861.19;;;20.97;100.00
22930;BME280;11630;42.660;23.292;2023-08-06T01:07:33;69849.16;;;20.79;100.00
22930;BME280;11630;42.660;23.292;2023-08-06T01:10:30;69857.13;;;20.85;100.00
22930;BME280;11630;42.660;23.292;2023-08-06T01:13:04;69857.13;;;20.85;100.00
22930;BME280;11630;42.660;23.292;2023-08-06T01:15:32;69870.52;;;21.06;100.00
22930;BME280;11630;42.660;23.292;2023-08-06T01:18:02;69851.09;;;20.82;100.00
22930;BME280;11630;42.660;23.292;2023-08-06T01:20:32;69820.86;;;20.57;100.00
22930;BME280;11630;42.660;23.292;2023-08-06T01:23:03;69815.70;;;20.44;100.00
22930;BME280;11630;42.660;23.292;2023-08-06T01:25:43;69799.16;;;20.41;100.00
22930;BME280;11630;42.660;23.292;2023-08-06T01:28:15;69827.50;;;20.56;100.00
22930;BME280;11630;42.660;23.292;2023-08-06T01:30:40;69844.77;;;20.75;100.00
22930;BME280;11630;42.660;23.292;2023-08-06T01:33:14;69845.06;;;20.69;100.00
22930;BME280;11630;42.660;23.292;2023-08-06T01:35:43;69796.66;;;20.43;100.00
22930;BME280;11630;42.660;23.292;2023-08-06T01:38:15;69785.42;;;20.34;100.00
22930;BME280;11630;42.660;23.292;2023-08-06T01:40:48;69800.39;;;20.22;100.00
22930;BME280;11630;42.660;23.292;2023-08-06T01:43:18;69795.11;;;20.26;100.00
22930;BME280;11630;42.660;23.292;2023-08-06T01:45:50;69812.36;;;20.48;100.00
22930;BME280;11630;42.660;23.292;2023-08-06T01:48:21;69818.89;;;20.62;100.00
22930;BME280;11630;42.660;23.292;2023-08-06T01:50:52;69797.35;;;20.23;100.00
22930;BME280;11630;42.660;23.292;2023-08-06T01:53:25;69772.35;;;20.05;100.00
22930;BME280;11630;42.660;23.292;2023-08-06T01:55:56;69744.05;;;19.85;100.00
22930;BME280;11630;42.660;23.292;2023-08-06T01:58:25;69714.18;;;19.57;100.00
22930;BME280;11630;42.660;23.292;2023-08-06T02:00:56;69688.58;;;19.52;100.00
22930;BME280;11630;42.660;23.292;2023-08-06T02:03:30;69744.12;;;19.75;100.00
22930;BME280;11630;42.660;23.292;2023-08-06T02:06:01;69742.14;;;19.82;100.00
22930;BME280;11630;42.660;23.292;2023-08-06T02:08:31;69747.05;;;19.94;100.00
22930;BME280;11630;42.660;23.292;2023-08-06T02:11:02;69748.39;;;20.02;100.00
22930;BME280;11630;42.660;23.292;2023-08-06T02:13:33;69768.73;;;20.10;100.00
22930;BME280;11630;42.660;23.292;2023-08-06T02:16:06;69751.73;;;19.97;100.00
22930;BME280;11630;42.660;23.292;2023-08-06T02:18:35;69737.73;;;19.83;100.00
22930;BME280;11630;42.660;23.292;2023-08-06T02:21:06;69743.23;;;19.86;100.00
22930;BME280;11630;42.660;23.292;2023-08-06T02:23:37;69722.66;;;19.68;100.00
22930;BME280;11630;42.660;23.292;2023-08-06T02:26:08;69702.88;;;19.55;100.00
22930;BME280;11630;42.660;23.292;2023-08-06T02:28:39;69716.94;;;19.57;100.00
22930;BME280;11630;42.660;23.292;2023-08-06T02:31:10;69720.47;;;19.64;100.00
22930;BME280;11630;42.660;23.292;2023-08-06T02:33:40;69731.66;;;19.83;100.00
22930;BME280;11630;42.660;23.292;2023-08-06T02:36:10;69757.52;;;19.96;100.00
22930;BME280;11630;42.660;23.292;2023-08-06T02:38:40;69748.97;;;19.95;100.00
22930;BME280;11630;42.660;23.292;2023-08-06T02:41:12;69720.16;;;19.70;100.00
22930;BME280;11630;42.660;23.292;2023-08-06T02:43:41;69725.11;;;19.69;100.00
22930;BME280;11630;42.660;23.292;2023-08-06T02:46:12;69714.65;;;19.70;100.00
22930;BME280;11630;42.660;23.292;2023-08-06T02:48:44;69750.92;;;19.88;100.00
22930;BME280;11630;42.660;23.292;2023-08-06T02:51:18;69727.56;;;19.78;100.00
22930;BME280;11630;42.660;23.292;2023-08-06T02:53:49;69766.20;;;20.16;100.00
22930;BME280;11630;42.660;23.292;2023-08-06T02:56:19;69813.80;;;20.41;100.00
22930;BME280;11630;42.660;23.292;2023-08-06T02:58:50;69825.78;;;20.64;100.00
22930;BME280;11630;42.660;23.292;2023-08-06T03:01:21;69765.36;;;20.19;100.00
22930;BME280;11630;42.660;23.292;2023-08-06T03:03:52;69742.64;;;19.88;100.00
22930;BME280;11630;42.660;23.292;2023-08-06T03:06:23;69764.88;;;20.09;100.00
22930;BME280;11630;42.660;23.292;2023-08-06T03:08:54;69756.95;;;20.01;100.00
22930;BME280;11630;42.660;23.292;2023-08-06T03:11:25;69757.14;;;20.09;100.00
22930;BME280;11630;42.660;23.292;2023-08-06T03:13:55;69786.78;;;20.36;100.00
22930;BME280;11630;42.660;23.292;2023-08-06T03:16:26;69807.70;;;20.43;100.00
22930;BME280;11630;42.660;23.292;2023-08-06T03:18:57;69801.88;;;20.46;100.00
22930;BME280;11630;42.660;23.292;2023-08-06T03:21:29;69804.39;;;20.42;100.00
22930;BME280;11630;42.660;23.292;2023-08-06T03:23:59;69803.30;;;20.41;100.00
22930;BME280;11630;42.660;23.292;2023-08-06T03:26:30;69860.48;;;20.78;100.00
22930;BME280;11630;42.660;23.292;2023-08-06T03:29:01;69794.20;;;20.39;100.00
22930;BME280;11630;42.660;23.292;2023-08-06T03:31:31;69796.14;;;20.40;100.00
22930;BME280;11630;42.660;23.292;2023-08-06T03:34:02;69818.44;;;20.46;100.00
22930;BME280;11630;42.660;23.292;2023-08-06T03:36:33;69843.10;;;20.76;100.00
22930;BME280;11630;42.660;23.292;2023-08-06T03:39:04;69846.63;;;20.88;100.00
22930;BME280;11630;42.660;23.292;2023-08-06T03:41:35;69823.58;;;20.62;100.00
22930;BME280;11630;42.660;23.292;2023-08-06T03:44:06;69766.74;;;20.19;100.00
22930;BME280;11630;42.660;23.292;2023-08-06T03:46:37;69783.26;;;20.24;100.00
22930;BME280;11630;42.660;23.292;2023-08-06T03:49:08;69776.40;;;20.19;100.00
22930;BME280;11630;42.660;23.292;2023-08-06T03:51:39;69821.67;;;20.59;100.00
22930;BME280;11630;42.660;23.292;2023-08-06T03:54:10;69807.03;;;20.60;100.00
22930;BME280;11630;42.660;23.292;2023-08-06T03:56:40;69823.11;;;20.49;100.00
22930;BME280;11630;42.660;23.292;2023-08-06T03:59:13;69814.22;;;20.59;100.00
22930;BME280;11630;42.660;23.292;2023-08-06T04:01:42;69847.23;;;20.81;100.00
22930;BME280;11630;42.660;23.292;2023-08-06T04:04:13;69849.06;;;20.94;100.00
22930;BME280;11630;42.660;23.292;2023-08-06T04:06:44;69858.73;;;20.94;100.00
22930;BME280;11630;42.660;23.292;2023-08-06T04:09:14;69891.95;;;21.23;100.00
22930;BME280;11630;42.660;23.292;2023-08-06T04:11:44;69873.53;;;21.10;100.00
22930;BME280;11630;42.660;23.292;2023-08-06T04:14:15;69895.25;;;21.26;100.00
22930;BME280;11630;42.660;23.292;2023-08-06T04:16:46;69880.72;;;21.09;100.00
22930;BME280;11630;42.660;23.292;2023-08-06T04:19:16;69869.95;;;21.08;100.00
22930;BME280;11630;42.660;23.292;2023-08-06T04:21:47;69906.26;;;21.31;100.00
22930;BME280;11630;42.660;23.292;2023-08-06T04:24:18;69916.38;;;21.44;100.00
22930;BME280;11630;42.660;23.292;2023-08-06T04:26:49;69905.34;;;21.41;100.00
22930;BME280;11630;42.660;23.292;2023-08-06T04:29:20;69859.27;;;20.94;100.00
22930;BME280;11630;42.660;23.292;2023-08-06T04:31:51;69864.98;;;21.08;100.00
22930;BME280;11630;42.660;23.292;2023-08-06T04:34:22;69904.59;;;21.32;100.00
22930;BME280;11630;42.660;23.292;2023-08-06T04:36:53;69887.27;;;21.22;100.00
22930;BME280;11630;42.660;23.292;2023-08-06T04:39:24;69876.25;;;21.15;100.00
22930;BME280;11630;42.660;23.292;2023-08-06T04:41:54;69887.84;;;21.18;100.00
22930;BME280;11630;42.660;23.292;2023-08-06T04:44:24;69879.08;;;21.05;100.00
22930;BME280;11630;42.660;23.292;2023-08-06T04:46:55;69864.03;;;20.85;100.00
22930;BME280;11630;42.660;23.292;2023-08-06T04:49:26;69848.89;;;20.80;100.00
22930;BME280;11630;42.660;23.292;2023-08-06T04:51:56;69874.48;;;20.92;100.00
22930;BME280;11630;42.660;23.292;2023-08-06T04:54:27;69904.36;;;21.25;100.00
22930;BME280;11630;42.660;23.292;2023-08-06T04:56:58;69871.11;;;20.99;100.00
22930;BME280;11630;42.660;23.292;2023-08-06T04:59:29;69868.67;;;20.93;100.00
22930;BME280;11630;42.660;23.292;2023-08-06T05:01:59;69830.20;;;20.63;100.00
22930;BME280;11630;42.660;23.292;2023-08-06T05:04:30;69851.86;;;20.89;100.00
22930;BME280;11630;42.660;23.292;2023-08-06T05:07:01;69877.61;;;21.17;100.00
22930;BME280;11630;42.660;23.292;2023-08-06T05:09:31;69917.25;;;21.41;100.00
22930;BME280;11630;42.660;23.292;2023-08-06T05:12:03;69855.97;;;20.94;100.00
22930;BME280;11630;42.660;23.292;2023-08-06T05:14:36;69916.14;;;21.40;100.00
22930;BME280;11630;42.660;23.292;2023-08-06T05:17:06;69915.28;;;21.43;100.00
22930;BME280;11630;42.660;23.292;2023-08-06T05:19:37;69955.41;;;21.79;100.00
22930;BME280;11630;42.660;23.292;2023-08-06T05:22:08;69982.64;;;21.97;100.00
22930;BME280;11630;42.660;23.292;2023-08-06T05:24:39;69964.63;;;22.00;100.00
22930;BME280;11630;42.660;23.292;2023-08-06T05:27:10;69923.51;;;21.53;100.00
22930;BME280;11630;42.660;23.292;2023-08-06T05:29:42;69915.28;;;21.45;100.00
22930;BME280;11630;42.660;23.292;2023-08-06T05:32:13;69904.53;;;21.39;100.00
22930;BME280;11630;42.660;23.292;2023-08-06T05:34:45;69911.72;;;21.41;100.00
22930;BME280;11630;42.660;23.292;2023-08-06T05:37:16;69904.53;;;21.39;100.00
22930;BME280;11630;42.660;23.292;2023-08-06T05:39:46;69891.95;;;21.23;100.00
22930;BME280;11630;42.660;23.292;2023-08-06T05:42:18;69891.30;;;21.35;100.00
22930;BME280;11630;42.660;23.292;2023-08-06T05:44:49;69909.30;;;21.30;100.00
22930;BME280;11630;42.660;23.292;2023-08-06T05:47:19;69913.23;;;21.21;100.00
22930;BME280;11630;42.660;23.292;2023-08-06T05:49:50;69904.27;;;21.38;100.00
22930;BME280;11630;42.660;23.292;2023-08-06T05:52:20;69923.88;;;21.42;100.00
22930;BME280;11630;42.660;23.292;2023-08-06T05:54:51;69940.05;;;21.63;100.00
22930;BME280;11630;42.660;23.292;2023-08-06T05:57:22;69952.05;;;21.83;100.00
22930;BME280;11630;42.660;23.292;2023-08-06T05:59:53;70004.38;;;22.13;100.00
22930;BME280;11630;42.660;23.292;2023-08-06T06:02:24;69993.05;;;22.12;100.00
22930;BME280;11630;42.660;23.292;2023-08-06T06:04:55;70011.02;;;22.14;100.00
22930;BME280;11630;42.660;23.292;2023-08-06T06:07:26;70019.77;;;22.27;100.00
22930;BME280;11630;42.660;23.292;2023-08-06T06:09:57;70035.61;;;22.54;100.00
22930;BME280;11630;42.660;23.292;2023-08-06T06:12:29;70063.18;;;22.69;100.00
22930;BME280;11630;42.660;23.292;2023-08-06T06:14:59;70067.73;;;22.87;100.00
22930;BME280;11630;42.660;23.292;2023-08-06T06:17:30;70170.84;;;23.52;100.00
22930;BME280;11630;42.660;23.292;2023-08-06T06:20:00;70079.34;;;22.90;100.00
22930;BME280;11630;42.660;23.292;2023-08-06T06:22:31;70066.92;;;22.85;100.00
22930;BME280;11630;42.660;23.292;2023-08-06T06:25:02;70068.51;;;22.62;100.00
22930;BME280;11630;42.660;23.292;2023-08-06T06:27:33;70028.63;;;22.25;100.00
22930;BME280;11630;42.660;23.292;2023-08-06T06:30:05;69993.62;;;22.10;100.00
22930;BME280;11630;42.660;23.292;2023-08-06T06:32:36;69955.94;;;21.82;100.00
22930;BME280;11630;42.660;23.292;2023-08-06T06:35:07;69959.45;;;21.91;100.00
22930;BME280;11630;42.660;23.292;2023-08-06T06:37:38;69968.81;;;21.97;100.00
22930;BME280;11630;42.660;23.292;2023-08-06T06:40:09;69989.98;;;22.13;100.00
22930;BME280;11630;42.660;23.292;2023-08-06T06:42:40;69984.89;;;21.92;100.00
22930;BME280;11630;42.660;23.292;2023-08-06T06:45:10;70032.17;;;22.37;100.00
22930;BME280;11630;42.660;23.292;2023-08-06T06:47:42;70004.31;;;22.21;100.00
22930;BME280;11630;42.660;23.292;2023-08-06T06:50:12;69974.95;;;21.90;100.00
22930;BME280;11630;42.660;23.292;2023-08-06T06:52:42;69972.68;;;21.98;100.00
22930;BME280;11630;42.660;23.292;2023-08-06T06:55:12;70018.13;;;22.23;100.00
22930;BME280;11630;42.660;23.292;2023-08-06T06:57:43;70067.25;;;22.79;100.00
22930;BME280;11630;42.660;23.292;2023-08-06T07:00:14;70140.47;;;23.37;100.00
22930;BME280;11630;42.660;23.292;2023-08-06T07:02:45;70100.04;;;23.00;100.00
22930;BME280;11630;42.660;23.292;2023-08-06T07:05:16;70100.04;;;23.00;100.00
22930;BME280;11630;42.660;23.292;2023-08-06T07:07:46;70078.44;;;22.98;100.00
22930;BME280;11630;42.660;23.292;2023-08-06T07:10:20;70037.77;;;22.63;100.00
22930;BME280;11630;42.660;23.292;2023-08-06T07:12:50;70057.69;;;22.64;100.00
22930;BME280;11630;42.660;23.292;2023-08-06T07:15:20;70065.87;;;22.79;100.00
22930;BME280;11630;42.660;23.292;2023-08-06T07:17:51;70076.39;;;22.81;100.00
22930;BME280;11630;42.660;23.292;2023-08-06T07:20:21;70093.16;;;22.95;100.00
22930;BME280;11630;42.660;23.292;2023-08-06T07:22:52;70077.70;;;22.88;100.00
22930;BME280;11630;42.660;23.292;2023-08-06T07:25:23;70103.83;;;23.13;100.00
22930;BME280;11630;42.660;23.292;2023-08-06T07:27:57;70126.00;;;23.13;100.00
22930;BME280;11630;42.660;23.292;2023-08-06T07:30:28;70108.52;;;23.14;100.00
22930;BME280;11630;42.660;23.292;2023-08-06T07:33:05;70129.41;;;23.35;100.00
22930;BME280;11630;42.660;23.292;2023-08-06T07:35:33;70144.58;;;23.42;100.00
22930;BME280;11630;42.660;23.292;2023-08-06T07:38:04;70166.22;;;23.73;100.00
22930;BME280;11630;42.660;23.292;2023-08-06T07:40:37;70128.95;;;23.25;100.00
22930;BME280;11630;42.660;23.292;2023-08-06T07:43:07;70134.08;;;23.40;100.00
22930;BME280;11630;42.660;23.292;2023-08-06T07:45:41;70134.08;;;23.40;100.00
22930;BME280;11630;42.660;23.292;2023-08-06T07:48:11;70154.88;;;23.69;100.00
22930;BME280;11630;42.660;23.292;2023-08-06T07:50:42;70154.88;;;23.69;100.00
22930;BME280;11630;42.660;23.292;2023-08-06T07:53:13;70180.16;;;23.63;100.00
22930;BME280;11630;42.660;23.292;2023-08-06T07:55:47;70167.19;;;23.58;100.00
22930;BME280;11630;42.660;23.292;2023-08-06T07:58:16;70179.24;;;23.76;100.00
22930;BME280;11630;42.660;23.292;2023-08-06T08:00:47;70184.01;;;23.69;100.00
22930;BME280;11630;42.660;23.292;2023-08-06T08:03:17;70171.55;;;23.64;100.00
22930;BME280;11630;42.660;23.292;2023-08-06T08:05:48;70181.88;;;23.91;99.34
22930;BME280;11630;42.660;23.292;2023-08-06T08:08:19;70212.48;;;24.10;99.18
22930;BME280;11630;42.660;23.292;2023-08-06T08:10:49;70227.64;;;24.22;95.24
22930;BME280;11630;42.660;23.292;2023-08-06T08:13:19;70255.79;;;24.40;93.96
22930;BME280;11630;42.660;23.292;2023-08-06T08:15:56;70255.38;;;24.54;93.70
22930;BME280;11630;42.660;23.292;2023-08-06T08:18:22;70274.60;;;24.50;93.21
22930;BME280;11630;42.660;23.292;2023-08-06T08:20:53;70245.91;;;24.26;94.23
22930;BME280;11630;42.660;23.292;2023-08-06T08:23:23;70236.22;;;24.24;94.90
22930;BME280;11630;42.660;23.292;2023-08-06T08:25:53;70237.86;;;24.28;93.35
22930;BME280;11630;42.660;23.292;2023-08-06T08:28:23;70225.88;;;24.31;92.27
22930;BME280;11630;42.660;23.292;2023-08-06T08:30:54;70246.70;;;24.31;93.13
22930;BME280;11630;42.660;23.292;2023-08-06T08:33:25;70251.75;;;24.28;93.04
22930;BME280;11630;42.660;23.292;2023-08-06T08:35:56;70216.34;;;24.13;93.18
22930;BME280;11630;42.660;23.292;2023-08-06T08:38:26;70253.26;;;24.44;92.81
22930;BME280;11630;42.660;23.292;2023-08-06T08:40:57;70246.89;;;24.40;88.68
22930;BME280;11630;42.660;23.292;2023-08-06T08:43:28;70311.17;;;24.86;90.18
22930;BME280;11630;42.660;23.292;2023-08-06T08:46:01;70260.08;;;24.57;85.67
22930;BME280;11630;42.660;23.292;2023-08-06T08:48:35;70294.66;;;24.72;85.66
22930;BME280;11630;42.660;23.292;2023-08-06T08:51:06;70311.23;;;25.05;82.38
22930;BME280;11630;42.660;23.292;2023-08-06T08:53:39;70311.23;;;25.05;82.38
22930;BME280;11630;42.660;23.292;2023-08-06T08:56:12;70372.99;;;25.56;81.71
22930;BME280;11630;42.660;23.292;2023-08-06T08:58:44;70336.91;;;25.25;80.29
22930;BME280;11630;42.660;23.292;2023-08-06T09:01:17;70404.61;;;25.67;80.90
22930;BME280;11630;42.660;23.292;2023-08-06T09:03:48;70448.59;;;26.17;77.73
22930;BME280;11630;42.660;23.292;2023-08-06T09:06:21;70458.06;;;26.18;75.25
22930;BME280;11630;42.660;23.292;2023-08-06T09:09:00;70407.08;;;25.70;75.70
22930;BME280;11630;42.660;23.292;2023-08-06T09:11:25;70434.64;;;25.95;76.13
22930;BME280;11630;42.660;23.292;2023-08-06T09:13:56;70512.59;;;26.72;73.75
22930;BME280;11630;42.660;23.292;2023-08-06T09:16:27;70506.59;;;26.61;72.15
22930;BME280;11630;42.660;23.292;2023-08-06T09:19:20;70470.13;;;26.34;71.42
22930;BME280;11630;42.660;23.292;2023-08-06T09:21:31;70455.98;;;26.27;71.36
22930;BME280;11630;42.660;23.292;2023-08-06T09:24:03;70483.44;;;26.41;72.49
22930;BME280;11630;42.660;23.292;2023-08-06T09:26:39;70512.59;;;26.72;71.15
22930;BME280;11630;42.660;23.292;2023-08-06T09:29:11;70524.21;;;26.80;68.54
22930;BME280;11630;42.660;23.292;2023-08-06T09:31:44;70516.52;;;26.70;67.50
22930;BME280;11630;42.660;23.292;2023-08-06T09:34:21;70584.38;;;27.31;66.21
22930;BME280;11630;42.660;23.292;2023-08-06T09:36:53;70530.05;;;26.81;67.81
22930;BME280;11630;42.660;23.292;2023-08-06T09:39:27;70511.81;;;26.67;64.91
22930;BME280;11630;42.660;23.292;2023-08-06T09:42:01;70517.27;;;26.77;65.73
22930;BME280;11630;42.660;23.292;2023-08-06T09:44:33;70507.45;;;26.61;68.07
22930;BME280;11630;42.660;23.292;2023-08-06T09:47:04;70428.23;;;25.96;69.86
22930;BME280;11630;42.660;23.292;2023-08-06T09:52:10;70460.42;;;26.29;69.51
22930;BME280;11630;42.660;23.292;2023-08-06T09:54:43;70449.81;;;26.08;68.88
22930;BME280;11630;42.660;23.292;2023-08-06T09:57:13;70441.81;;;26.02;69.12
22930;BME280;11630;42.660;23.292;2023-08-06T09:59:45;70428.45;;;26.00;69.67
22930;BME280;11630;42.660;23.292;2023-08-06T10:02:17;70397.24;;;25.80;70.04
22930;BME280;11630;42.660;23.292;2023-08-06T10:04:51;70443.92;;;26.11;69.77
22930;BME280;11630;42.660;23.292;2023-08-06T10:07:22;70434.84;;;26.02;67.88
22930;BME280;11630;42.660;23.292;2023-08-06T10:09:54;70449.23;;;26.10;67.49
22930;BME280;11630;42.660;23.292;2023-08-06T10:12:26;70381.34;;;25.56;67.26
22930;BME280;11630;42.660;23.292;2023-08-06T10:14:59;70377.77;;;25.54;67.46
22930;BME280;11630;42.660;23.292;2023-08-06T10:17:31;70376.31;;;25.59;68.90
22930;BME280;11630;42.660;23.292;2023-08-06T10:20:08;70419.77;;;25.82;68.85
22930;BME280;11630;42.660;23.292;2023-08-06T10:22:34;70438.23;;;25.97;68.38
22930;BME280;11630;42.660;23.292;2023-08-06T10:25:05;70465.77;;;26.25;68.05
22930;BME280;11630;42.660;23.292;2023-08-06T10:27:40;70436.49;;;26.03;67.82
22930;BME280;11630;42.660;23.292;2023-08-06T10:30:24;70450.31;;;26.13;66.99
22930;BME280;11630;42.660;23.292;2023-08-06T10:32:56;70453.64;;;26.14;64.89
22930;BME280;11630;42.660;23.292;2023-08-06T10:35:30;70434.81;;;26.04;65.25
22930;BME280;11630;42.660;23.292;2023-08-06T10:38:12;70502.63;;;26.65;63.88
22930;BME280;11630;42.660;23.292;2023-08-06T10:43:33;70452.13;;;26.24;64.18
22930;BME280;11630;42.660;23.292;2023-08-06T10:46:11;70436.98;;;26.09;64.81
22930;BME280;11630;42.660;23.292;2023-08-06T10:48:43;70395.35;;;25.75;66.96
22930;BME280;11630;42.660;23.292;2023-08-06T10:51:14;70408.81;;;25.91;66.67
22930;BME280;11630;42.660;23.292;2023-08-06T10:53:47;70371.84;;;25.60;66.52
22930;BME280;11630;42.660;23.292;2023-08-06T10:56:22;70380.91;;;25.69;66.65
22930;BME280;11630;42.660;23.292;2023-08-06T10:58:56;70391.33;;;25.60;65.70
22930;BME280;11630;42.660;23.292;2023-08-06T11:01:31;70355.53;;;25.25;66.28
22930;BME280;11630;42.660;23.292;2023-08-06T11:04:02;70362.98;;;25.31;66.58
22930;BME280;11630;42.660;23.292;2023-08-06T11:06:32;70336.88;;;25.27;67.04
22930;BME280;11630;42.660;23.292;2023-08-06T11:09:03;70353.22;;;25.33;67.29
22930;BME280;11630;42.660;23.292;2023-08-06T11:11:34;70348.66;;;25.44;68.13
22930;BME280;11630;42.660;23.292;2023-08-06T11:14:05;70381.06;;;25.57;68.10
22930;BME280;11630;42.660;23.292;2023-08-06T11:16:36;70378.52;;;25.61;68.71
22930;BME280;11630;42.660;23.292;2023-08-06T11:19:08;70395.09;;;25.71;69.52
22930;BME280;11630;42.660;23.292;2023-08-06T11:21:40;70286.73;;;24.84;69.33
22930;BME280;11630;42.660;23.292;2023-08-06T11:24:11;70287.36;;;24.78;76.69
22930;BME280;11630;42.660;23.292;2023-08-06T11:26:46;70242.73;;;24.40;90.78
22930;BME280;11630;42.660;23.292;2023-08-06T11:29:18;70221.95;;;24.08;92.15
22930;BME280;11630;42.660;23.292;2023-08-06T11:31:49;70212.11;;;24.18;97.14
22930;BME280;11630;42.660;23.292;2023-08-06T11:34:19;70241.44;;;24.30;95.34
22930;BME280;11630;42.660;23.292;2023-08-06T11:36:50;70186.18;;;23.76;92.77
22930;BME280;11630;42.660;23.292;2023-08-06T11:39:24;70208.38;;;24.05;92.53
22930;BME280;11630;42.660;23.292;2023-08-06T11:41:55;70280.80;;;24.67;98.33
22930;BME280;11630;42.660;23.292;2023-08-06T11:44:26;70302.72;;;24.96;99.00
22930;BME280;11630;42.660;23.292;2023-08-06T11:46:57;70321.85;;;25.02;91.78
22930;BME280;11630;42.660;23.292;2023-08-06T11:49:47;70360.49;;;25.30;93.22
22930;BME280;11630;42.660;23.292;2023-08-06T11:52:19;70393.16;;;25.70;97.15
22930;BME280;11630;42.660;23.292;2023-08-06T11:55:07;70503.81;;;26.61;92.34
22930;BME280;11630;42.660;23.292;2023-08-06T11:57:45;70554.28;;;27.08;86.92
22930;BME280;11630;42.660;23.292;2023-08-06T12:00:17;70612.52;;;27.57;80.82
22930;BME280;11630;42.660;23.292;2023-08-06T12:02:48;70721.58;;;28.56;79.17
22930;BME280;11630;42.660;23.292;2023-08-06T12:05:23;70729.59;;;28.62;73.51
22930;BME280;11630;42.660;23.292;2023-08-06T12:07:58;70728.41;;;28.66;68.58
22930;BME280;11630;42.660;23.292;2023-08-06T12:10:30;70704.20;;;28.39;66.51
22930;BME280;11630;42.660;23.292;2023-08-06T12:13:02;70669.50;;;28.22;69.03
22930;BME280;11630;42.660;23.292;2023-08-06T12:15:32;70600.08;;;27.47;68.63
22930;BME280;11630;42.660;23.292;2023-08-06T12:18:03;70548.05;;;27.15;69.93
22930;BME280;11630;42.660;23.292;2023-08-06T12:20:34;70533.44;;;27.01;71.15
22930;BME280;11630;42.660;23.292;2023-08-06T12:23:05;70573.88;;;27.24;74.02
22930;BME280;11630;42.660;23.292;2023-08-06T12:25:36;70493.93;;;26.71;71.36
22930;BME280;11630;42.660;23.292;2023-08-06T12:28:07;70493.38;;;26.49;70.51
22930;BME280;11630;42.660;23.292;2023-08-06T12:30:36;70490.05;;;26.46;69.54
22930;BME280;11630;42.660;23.292;2023-08-06T12:33:07;70491.80;;;26.62;69.24
22930;BME280;11630;42.660;23.292;2023-08-06T12:35:38;70488.83;;;26.55;71.86
22930;BME280;11630;42.660;23.292;2023-08-06T12:38:09;70468.16;;;26.36;70.42
22930;BME280;11630;42.660;23.292;2023-08-06T12:40:40;70458.59;;;26.21;70.07
22930;BME280;11630;42.660;23.292;2023-08-06T12:43:11;70458.60;;;26.18;70.85
22930;BME280;11630;42.660;23.292;2023-08-06T12:45:42;70468.78;;;26.29;70.07
22930;BME280;11630;42.660;23.292;2023-08-06T12:48:13;70458.06;;;26.18;69.28
22930;BME280;11630;42.660;23.292;2023-08-06T12:50:45;70498.02;;;26.57;68.16
22930;BME280;11630;42.660;23.292;2023-08-06T12:53:16;70492.27;;;26.48;69.92
22930;BME280;11630;42.660;23.292;2023-08-06T12:55:48;70498.77;;;26.64;68.60
22930;BME280;11630;42.660;23.292;2023-08-06T12:58:18;70559.50;;;27.14;69.45
22930;BME280;11630;42.660;23.292;2023-08-06T13:00:49;70526.91;;;26.87;65.04
22930;BME280;11630;42.660;23.292;2023-08-06T13:03:20;70518.09;;;26.79;65.24
22930;BME280;11630;42.660;23.292;2023-08-06T13:05:52;70498.02;;;26.57;65.09
22930;BME280;11630;42.660;23.292;2023-08-06T13:08:23;70488.55;;;26.56;65.99
22930;BME280;11630;42.660;23.292;2023-08-06T13:10:54;70507.13;;;26.64;65.33